createdAt,value
2022-08-05T00:01:36.078Z,4.68
2022-08-05T00:04:17.452Z,3.50
2022-08-05T00:06:47.059Z,3.85
2022-08-05T00:09:15.891Z,3.70
2022-08-05T00:11:55.667Z,4.28
2022-08-05T00:14:27.814Z,3.50
2022-08-05T00:16:57.852Z,3.95
2022-08-05T00:19:33.480Z,3.85
2022-08-05T00:22:08.330Z,3.63
2022-08-05T00:27:14.104Z,3.80
2022-08-05T00:29:56.488Z,4.55
2022-08-05T00:32:25.856Z,4.03
2022-08-05T00:35:06.919Z,4.20
2022-08-05T00:37:52.470Z,5.13
2022-08-05T00:40:27.484Z,4.20
2022-08-05T00:42:58.921Z,3.70
2022-08-05T00:45:37.946Z,4.23
2022-08-05T00:48:12.015Z,4.00
2022-08-05T00:50:44.255Z,3.30
2022-08-05T00:54:01.402Z,4.32
2022-08-05T00:56:05.615Z,3.65
2022-08-05T00:58:36.919Z,4.43
2022-08-05T01:01:08.760Z,4.00
2022-08-05T01:03:38.496Z,4.40
2022-08-05T01:06:14.149Z,3.35
2022-08-05T01:08:44.254Z,3.88
2022-08-05T01:11:24.229Z,4.82
2022-08-05T01:14:15.342Z,4.68
2022-08-05T01:16:52.210Z,3.45
2022-08-05T01:19:36.831Z,4.45
2022-08-05T01:22:43.306Z,4.10
2022-08-05T01:25:40.976Z,4.07
2022-08-05T01:28:42.478Z,4.03
2022-08-05T01:31:28.966Z,4.22
2022-08-05T01:34:30.493Z,3.40
2022-08-05T01:37:18.082Z,3.92
2022-08-05T01:39:59.196Z,4.00
2022-08-05T01:42:30.091Z,3.80
2022-08-05T01:45:03.315Z,4.15
2022-08-05T01:47:39.426Z,3.90
2022-08-05T01:50:29.708Z,3.85
2022-08-05T01:53:06.869Z,3.95
2022-08-05T01:55:37.335Z,3.95
2022-08-05T01:58:12.870Z,4.53
2022-08-05T02:00:52.198Z,4.82
2022-08-05T02:03:34.187Z,4.40
2022-08-05T02:06:24.087Z,4.07
2022-08-05T02:08:58.536Z,4.50
2022-08-05T02:11:34.211Z,4.80
2022-08-05T02:14:12.444Z,4.05
2022-08-05T02:16:53.231Z,4.50
2022-08-05T02:19:28.907Z,4.65
2022-08-05T02:22:32.541Z,3.83
2022-08-05T02:25:09.048Z,5.00
2022-08-05T02:27:59.050Z,3.70
2022-08-05T02:30:54.356Z,4.80
2022-08-05T02:33:36.224Z,5.15
2022-08-05T02:36:15.564Z,4.05
2022-08-05T02:38:53.589Z,4.80
2022-08-05T02:41:23.754Z,4.20
2022-08-05T02:44:06.266Z,5.00
2022-08-05T02:46:53.505Z,5.40
2022-08-05T02:49:36.479Z,5.18
2022-08-05T02:52:25.877Z,4.78
2022-08-05T02:55:02.078Z,5.68
2022-08-05T02:58:19.821Z,4.38
2022-08-05T03:00:22.215Z,6.03
2022-08-05T03:06:55.282Z,4.78
2022-08-05T03:08:11.404Z,5.20
2022-08-05T03:10:42.158Z,5.38
2022-08-05T03:13:51.456Z,6.03
2022-08-05T03:16:17.199Z,4.43
2022-08-05T03:18:48.713Z,4.90
2022-08-05T03:21:16.667Z,6.13
2022-08-05T03:23:45.610Z,4.80
2022-08-05T03:26:31.781Z,4.63
2022-08-05T03:29:00.600Z,5.72
2022-08-05T03:31:56.665Z,4.88
2022-08-05T03:34:17.300Z,5.80
2022-08-05T03:36:45.440Z,5.03
2022-08-05T03:39:20.058Z,5.15
2022-08-05T03:41:57.212Z,4.68
2022-08-05T03:44:25.848Z,4.45
2022-08-05T03:46:56.857Z,4.63
2022-08-05T03:49:30.988Z,4.70
2022-08-05T03:52:48.367Z,5.47
2022-08-05T03:56:04.164Z,4.53
2022-08-05T03:58:16.481Z,5.00
2022-08-05T04:00:51.297Z,5.10
2022-08-05T04:03:28.356Z,4.85
2022-08-05T04:05:59.217Z,4.68
2022-08-05T04:08:36.320Z,6.03
2022-08-05T04:11:08.475Z,4.68
2022-08-05T04:13:50.213Z,5.50
2022-08-05T04:16:24.217Z,4.78
2022-08-05T04:18:54.781Z,5.30
2022-08-05T04:22:08.672Z,5.47
2022-08-05T04:24:19.489Z,5.43
2022-08-05T04:26:50.865Z,6.40
2022-08-05T04:29:19.048Z,5.18
2022-08-05T04:31:48.419Z,5.47
2022-08-05T04:34:32.829Z,6.28
2022-08-05T04:37:03.196Z,4.65
2022-08-05T04:39:32.158Z,5.55
2022-08-05T04:42:00.584Z,4.70
2022-08-05T04:44:31.281Z,4.97
2022-08-05T04:46:59.731Z,4.68
2022-08-05T04:49:39.301Z,5.35
2022-08-05T04:52:16.542Z,4.47
2022-08-05T04:54:44.525Z,4.55
2022-08-05T04:57:12.358Z,5.68
2022-08-05T04:59:40.893Z,4.65
2022-08-05T05:02:37.282Z,5.25
2022-08-05T05:05:01.988Z,3.80
2022-08-05T05:07:32.959Z,5.07
2022-08-05T05:10:06.521Z,4.65
2022-08-05T05:12:34.374Z,4.72
2022-08-05T05:15:10.825Z,4.53
2022-08-05T05:17:57.083Z,4.68
2022-08-05T05:20:28.346Z,5.22
2022-08-05T05:22:58.273Z,5.95
2022-08-05T05:25:32.480Z,5.20
2022-08-05T05:28:00.910Z,4.57
2022-08-05T05:30:33.470Z,3.63
2022-08-05T05:33:16.618Z,4.55
2022-08-05T05:35:48.363Z,4.18
2022-08-05T05:38:27.296Z,6.25
2022-08-05T05:40:57.066Z,4.35
2022-08-05T05:43:54.483Z,4.93
2022-08-05T05:46:17.778Z,6.25
2022-08-05T05:48:48.843Z,3.88
2022-08-05T05:51:24.110Z,4.85
2022-08-05T05:53:57.482Z,5.13
2022-08-05T05:56:32.917Z,4.38
2022-08-05T05:59:05.754Z,3.85
2022-08-05T06:01:40.146Z,2.55
2022-08-05T06:04:11.745Z,3.00
2022-08-05T06:06:47.689Z,5.53
2022-08-05T06:09:25.412Z,3.95
2022-08-05T06:12:01.081Z,4.22
2022-08-05T06:14:31.596Z,3.10
2022-08-05T06:17:01.980Z,3.47
2022-08-05T06:19:56.861Z,2.60
2022-08-05T06:22:33.373Z,4.90
2022-08-05T06:25:59.207Z,3.22
2022-08-05T06:28:10.480Z,3.03
2022-08-05T06:30:39.210Z,2.72
2022-08-05T06:33:10.037Z,2.92
2022-08-05T06:36:07.684Z,3.70
2022-08-05T06:38:36.417Z,2.72
2022-08-05T06:41:07.989Z,3.22
2022-08-05T06:43:57.742Z,2.73
2022-08-05T06:46:29.913Z,2.90
2022-08-05T06:48:59.902Z,3.22
2022-08-05T06:51:30.914Z,3.70
2022-08-05T06:54:00.418Z,2.92
2022-08-05T06:58:57.432Z,2.53
2022-08-05T07:01:32.035Z,3.35
2022-08-05T07:04:02.251Z,3.03
2022-08-05T07:06:30.584Z,3.55
2022-08-05T07:09:04.155Z,3.22
2022-08-05T07:11:37.124Z,3.13
2022-08-05T07:14:34.367Z,3.47
2022-08-05T07:17:59.333Z,2.70
2022-08-05T07:25:53.877Z,3.50
2022-08-05T07:28:04.206Z,2.35
2022-08-05T07:30:50.320Z,2.35
2022-08-05T07:33:36.745Z,2.88
2022-08-05T07:36:20.796Z,3.50
2022-08-05T07:38:49.876Z,2.47
2022-08-05T07:42:07.651Z,3.05
2022-08-05T07:44:18.676Z,3.40
2022-08-05T07:46:48.463Z,2.47
2022-08-05T07:49:18.335Z,2.15
2022-08-05T07:51:53.828Z,2.88
2022-08-05T07:54:31.169Z,2.90
2022-08-05T07:57:01.604Z,2.60
2022-08-05T07:59:54.167Z,2.97
2022-08-05T08:02:31.369Z,3.47
2022-08-05T08:05:17.520Z,3.15
2022-08-05T08:07:58.972Z,2.80
2022-08-05T08:10:28.679Z,3.03
2022-08-05T08:12:59.065Z,3.45
2022-08-05T08:16:34.352Z,2.80
2022-08-05T08:18:20.814Z,2.72
2022-08-05T08:21:01.866Z,2.42
2022-08-05T08:24:01.409Z,3.13
2022-08-05T08:26:26.775Z,3.00
2022-08-05T08:29:21.934Z,3.30
2022-08-05T08:31:47.225Z,3.38
2022-08-05T08:34:18.622Z,3.47
2022-08-05T08:39:24.816Z,2.35
2022-08-05T08:41:59.894Z,4.75
2022-08-05T08:45:22.886Z,3.58
2022-08-05T08:48:07.355Z,3.17
2022-08-05T08:50:30.162Z,2.80
2022-08-05T08:53:07.927Z,4.38
2022-08-05T08:56:02.493Z,3.22
2022-08-05T08:58:37.578Z,4.10
2022-08-05T09:01:16.469Z,4.60
2022-08-05T09:03:55.671Z,4.63
2022-08-05T09:06:28.194Z,4.18
2022-08-05T09:09:01.768Z,4.78
2022-08-05T09:11:51.727Z,3.80
2022-08-05T09:14:56.346Z,4.43
2022-08-05T09:17:09.419Z,3.83
2022-08-05T09:20:01.441Z,3.92
2022-08-05T09:22:32.213Z,4.75
2022-08-05T09:25:02.070Z,4.22
2022-08-05T09:28:04.345Z,4.45
2022-08-05T09:30:29.537Z,3.65
2022-08-05T09:33:02.261Z,4.53
2022-08-05T09:35:30.064Z,4.30
2022-08-05T09:38:17.510Z,5.43
2022-08-05T09:40:52.710Z,5.13
2022-08-05T09:43:41.172Z,4.65
2022-08-05T09:46:33.971Z,5.63
2022-08-05T09:49:19.375Z,4.43
2022-08-05T09:51:49.456Z,4.68
2022-08-05T09:54:31.910Z,5.00
2022-08-05T09:57:01.541Z,5.57
2022-08-05T09:59:37.302Z,4.00
2022-08-05T10:02:05.456Z,4.43
2022-08-05T10:04:39.722Z,5.07
2022-08-05T10:07:14.152Z,4.50
2022-08-05T10:10:13.832Z,4.50
2022-08-05T10:12:49.370Z,4.93
2022-08-05T10:15:34.153Z,5.40
2022-08-05T10:18:04.266Z,4.07
2022-08-05T10:20:34.475Z,5.15
2022-08-05T10:23:02.275Z,4.25
2022-08-05T10:25:31.288Z,5.13
2022-08-05T10:28:13.552Z,3.85
2022-08-05T10:32:50.997Z,4.13
2022-08-05T10:33:37.403Z,3.67
2022-08-05T10:36:07.595Z,4.20
2022-08-05T10:38:37.532Z,4.20
2022-08-05T10:41:46.757Z,4.00
2022-08-05T10:44:20.108Z,3.95
2022-08-05T10:46:55.738Z,4.30
2022-08-05T10:49:27.233Z,4.45
2022-08-05T10:52:03.279Z,4.13
2022-08-05T10:55:02.574Z,5.05
2022-08-05T10:57:31.788Z,4.45
2022-08-05T11:00:20.004Z,3.92
2022-08-05T11:03:25.402Z,5.50
2022-08-05T11:06:08.515Z,4.55
2022-08-05T11:08:39.118Z,4.72
2022-08-05T11:11:44.802Z,4.00
2022-08-05T11:17:57.101Z,3.75
2022-08-05T11:20:41.642Z,4.25
2022-08-05T11:24:03.813Z,3.83
2022-08-05T11:26:32.703Z,3.83
2022-08-05T11:29:12.867Z,3.92
2022-08-05T11:31:57.202Z,5.15
2022-08-05T11:35:05.178Z,4.25
2022-08-05T11:38:28.115Z,3.60
2022-08-05T11:41:56.430Z,3.40
2022-08-05T11:47:10.974Z,3.55
2022-08-05T11:49:51.011Z,3.65
2022-08-05T11:52:31.047Z,3.00
2022-08-05T11:55:07.619Z,4.97
2022-08-05T11:58:08.390Z,3.15
2022-08-05T12:00:31.998Z,2.70
2022-08-05T12:03:29.515Z,3.25
2022-08-05T12:06:02.555Z,2.53
2022-08-05T12:11:06.276Z,2.83
2022-08-05T12:13:48.422Z,2.75
2022-08-05T12:16:25.697Z,3.03
2022-08-05T12:18:55.708Z,3.33
2022-08-05T12:21:26.763Z,2.85
2022-08-05T12:24:05.042Z,2.38
2022-08-05T12:26:38.743Z,3.42
2022-08-05T12:29:22.842Z,3.10
2022-08-05T12:31:54.327Z,4.10
2022-08-05T12:34:32.791Z,2.95
2022-08-05T12:37:10.871Z,2.92
2022-08-05T12:39:51.210Z,3.50
2022-08-05T12:42:21.245Z,3.63
2022-08-05T12:44:49.695Z,2.40
2022-08-05T12:47:28.689Z,3.33
2022-08-05T12:50:04.430Z,3.45
2022-08-05T12:52:39.562Z,3.13
2022-08-05T12:55:28.374Z,3.05
2022-08-05T12:58:48.314Z,2.72
2022-08-05T13:02:01.961Z,3.00
2022-08-05T13:03:41.380Z,2.60
2022-08-05T13:06:17.500Z,2.67
2022-08-05T13:08:51.611Z,2.38
2022-08-05T13:12:01.811Z,2.63
2022-08-05T13:14:24.996Z,2.75
2022-08-05T13:17:31.837Z,3.08
2022-08-05T13:20:19.263Z,3.35
2022-08-05T13:22:51.689Z,3.17
2022-08-05T13:25:22.187Z,2.38
2022-08-05T13:28:10.708Z,3.03
2022-08-05T13:34:21.465Z,2.58
2022-08-05T13:36:05.285Z,3.10
2022-08-05T13:38:36.071Z,2.58
2022-08-05T13:41:04.359Z,4.30
2022-08-05T13:43:43.336Z,2.83
2022-08-05T13:46:14.808Z,2.58
2022-08-05T13:48:58.261Z,2.78
2022-08-05T13:51:36.456Z,2.55
2022-08-05T13:54:11.947Z,2.50
2022-08-05T13:56:44.871Z,3.00
2022-08-05T13:59:24.125Z,2.88
2022-08-05T14:01:58.210Z,2.03
2022-08-05T14:04:49.519Z,2.63
2022-08-05T14:07:56.871Z,2.88
2022-08-05T14:10:19.085Z,3.05
2022-08-05T14:12:57.438Z,2.58
2022-08-05T14:16:09.127Z,2.70
2022-08-05T14:18:17.708Z,3.28
2022-08-05T14:20:48.200Z,3.90
2022-08-05T14:23:23.991Z,3.13
2022-08-05T14:25:58.063Z,2.30
2022-08-05T14:28:28.833Z,2.75
2022-08-05T14:30:58.466Z,2.90
2022-08-05T14:33:26.278Z,3.03
2022-08-05T14:35:54.888Z,3.47
2022-08-05T14:38:32.118Z,3.28
2022-08-05T14:41:06.132Z,3.08
2022-08-05T14:44:02.486Z,3.20
2022-08-05T14:46:29.620Z,3.22
2022-08-05T14:49:03.412Z,3.85
2022-08-05T14:51:37.620Z,3.30
2022-08-05T14:54:27.892Z,2.75
2022-08-05T14:56:55.402Z,2.63
2022-08-05T14:59:23.510Z,2.55
2022-08-05T15:01:51.310Z,2.53
2022-08-05T15:04:22.575Z,2.85
2022-08-05T15:06:51.341Z,2.85
2022-08-05T15:09:52.141Z,2.88
2022-08-05T15:12:16.358Z,3.53
2022-08-05T15:14:50.139Z,2.70
2022-08-05T15:17:47.753Z,4.22
2022-08-05T15:20:18.483Z,3.22
2022-08-05T15:22:54.171Z,3.22
2022-08-05T15:25:40.889Z,3.05
2022-08-05T15:28:15.003Z,3.03
2022-08-05T15:30:47.040Z,3.33
2022-08-05T15:33:56.746Z,2.92
2022-08-05T15:36:17.548Z,3.03
2022-08-05T15:40:41.358Z,2.75
2022-08-05T15:41:55.974Z,2.72
2022-08-05T15:44:24.968Z,2.67
2022-08-05T15:46:53.280Z,3.45
2022-08-05T15:49:40.720Z,2.72
2022-08-05T15:52:16.034Z,2.92
2022-08-05T15:54:45.117Z,3.15
2022-08-05T15:57:14.205Z,2.60
2022-08-05T15:59:44.037Z,3.40
2022-08-05T16:02:14.786Z,3.53
2022-08-05T16:04:48.007Z,2.92
2022-08-05T16:07:16.445Z,3.03
2022-08-05T16:09:45.758Z,2.95
2022-08-05T16:12:13.394Z,2.75
2022-08-05T16:14:43.469Z,3.97
2022-08-05T16:17:12.314Z,3.67
2022-08-05T16:20:04.220Z,4.18
2022-08-05T16:22:34.102Z,4.30
2022-08-05T16:25:05.398Z,4.55
2022-08-05T16:28:00.872Z,4.13
2022-08-05T16:30:31.928Z,4.53
2022-08-05T16:33:00.357Z,4.82
2022-08-05T16:35:32.331Z,4.97
2022-08-05T16:38:16.926Z,4.78
2022-08-05T16:40:55.186Z,4.13
2022-08-05T16:43:30.353Z,4.95
2022-08-05T16:46:07.766Z,4.70
2022-08-05T16:48:40.850Z,4.13
2022-08-05T16:51:10.474Z,4.50
2022-08-05T16:54:03.318Z,4.05
2022-08-05T16:56:33.704Z,3.90
2022-08-05T16:59:09.126Z,4.60
2022-08-05T17:01:53.745Z,4.03
2022-08-05T17:04:27.988Z,4.78
2022-08-05T17:07:01.214Z,6.68
2022-08-05T17:09:30.358Z,26.02
2022-08-05T17:12:06.956Z,27.17
2022-08-05T17:14:37.121Z,22.30
2022-08-05T17:19:34.040Z,8.43
2022-08-05T17:22:01.864Z,16.80
2022-08-05T17:24:38.746Z,8.18
2022-08-05T17:27:10.014Z,9.57
2022-08-05T17:29:41.113Z,9.77
2022-08-05T17:32:11.931Z,6.57
2022-08-05T17:34:48.560Z,3.95
2022-08-05T17:37:40.419Z,4.38
2022-08-05T17:40:12.291Z,3.70
2022-08-05T17:42:50.452Z,3.95
2022-08-05T17:45:22.272Z,3.83
2022-08-05T17:47:54.996Z,4.15
2022-08-05T17:50:30.274Z,4.60
2022-08-05T17:53:00.564Z,4.32
2022-08-05T17:55:38.220Z,4.07
2022-08-05T17:58:11.089Z,4.07
2022-08-05T18:00:50.687Z,4.40
2022-08-05T18:06:12.118Z,5.47
2022-08-05T18:08:46.046Z,5.45
2022-08-05T18:11:23.717Z,5.97
2022-08-05T18:13:57.326Z,5.57
2022-08-05T18:16:27.543Z,4.28
2022-08-05T18:18:55.481Z,4.70
2022-08-05T18:21:26.301Z,4.32
2022-08-05T18:23:55.756Z,4.25
2022-08-05T18:26:27.727Z,5.07
2022-08-05T18:29:01.194Z,5.15
2022-08-05T18:31:33.830Z,5.53
2022-08-05T18:34:06.092Z,4.43
2022-08-05T18:36:35.481Z,5.68
2022-08-05T18:39:09.807Z,5.57
2022-08-05T18:41:51.278Z,5.03
2022-08-05T18:44:35.204Z,4.50
2022-08-05T18:47:10.100Z,5.40
2022-08-05T18:50:00.145Z,3.50
2022-08-05T18:52:36.198Z,3.90
2022-08-05T18:55:06.280Z,5.75
2022-08-05T18:57:43.626Z,4.10
2022-08-05T19:00:27.300Z,4.30
2022-08-05T19:03:04.057Z,4.22
2022-08-05T19:06:11.671Z,4.60
2022-08-05T19:08:22.229Z,4.95
2022-08-05T19:10:59.649Z,4.25
2022-08-05T19:13:35.627Z,4.25
2022-08-05T19:16:22.077Z,5.15
2022-08-05T19:18:56.499Z,4.45
2022-08-05T19:21:27.387Z,4.67
2022-08-05T19:24:07.832Z,4.28
2022-08-05T19:26:43.853Z,4.25
2022-08-05T19:29:35.528Z,5.00
2022-08-05T19:34:39.720Z,3.65
2022-08-05T19:37:08.400Z,5.38
2022-08-05T19:39:45.805Z,4.80
2022-08-05T19:42:35.803Z,4.80
2022-08-05T19:45:05.953Z,4.28
2022-08-05T19:47:37.187Z,4.82
2022-08-05T19:50:07.920Z,5.22
2022-08-05T19:52:39.763Z,4.60
2022-08-05T19:56:14.733Z,4.78
2022-08-05T19:58:14.555Z,5.00
2022-08-05T20:00:44.240Z,4.20
2022-08-05T20:03:12.042Z,4.43
2022-08-05T20:05:56.703Z,3.97
2022-08-05T20:08:26.157Z,3.60
2022-08-05T20:10:55.684Z,2.75
2022-08-05T20:13:30.146Z,2.38
2022-08-05T20:16:19.532Z,2.05
2022-08-05T20:18:55.443Z,2.33
2022-08-05T20:21:26.508Z,2.20
2022-08-05T20:24:00.781Z,3.28
2022-08-05T20:26:28.623Z,2.75
2022-08-05T20:28:57.830Z,4.90
2022-08-05T20:31:43.112Z,3.85
2022-08-05T20:34:17.627Z,3.65
2022-08-05T20:36:45.530Z,3.42
2022-08-05T20:39:16.401Z,4.32
2022-08-05T20:41:46.775Z,3.42
2022-08-05T20:44:29.365Z,3.35
2022-08-05T20:47:03.540Z,3.38
2022-08-05T20:49:37.788Z,3.42
2022-08-05T20:52:08.631Z,2.95
2022-08-05T20:54:58.881Z,3.92
2022-08-05T20:57:24.692Z,4.07
2022-08-05T21:00:41.411Z,4.70
2022-08-05T21:03:06.960Z,2.88
2022-08-05T21:05:47.677Z,3.80
2022-08-05T21:08:42.086Z,3.20
2022-08-05T21:11:12.649Z,3.85
2022-08-05T21:13:48.319Z,2.80
2022-08-05T21:16:29.978Z,2.70
2022-08-05T21:19:03.628Z,2.67
2022-08-05T21:21:39.005Z,3.00
2022-08-05T21:24:09.905Z,2.72
2022-08-05T21:26:41.641Z,2.42
2022-08-05T21:29:12.601Z,3.03
2022-08-05T21:31:44.579Z,2.50
2022-08-05T21:34:12.402Z,2.72
2022-08-05T21:36:42.404Z,2.40
2022-08-05T21:39:16.988Z,2.60
2022-08-05T21:42:01.857Z,4.78
2022-08-05T21:44:31.827Z,2.35
2022-08-05T21:47:00.194Z,2.90
2022-08-05T21:50:00.498Z,3.80
2022-08-05T21:52:27.252Z,4.18
2022-08-05T21:54:57.823Z,3.63
2022-08-05T21:57:35.817Z,3.10
2022-08-05T22:00:11.775Z,2.90
2022-08-05T22:02:43.660Z,3.67
2022-08-05T22:05:12.810Z,3.88
2022-08-05T22:07:58.825Z,2.43
2022-08-05T22:10:27.823Z,3.60
2022-08-05T22:12:58.831Z,3.78
2022-08-05T22:16:01.239Z,3.90
2022-08-05T22:18:25.764Z,4.05
2022-08-05T22:20:53.851Z,3.83
2022-08-05T22:24:01.050Z,2.78
2022-08-05T22:26:49.670Z,4.07
2022-08-05T22:29:18.972Z,3.17
2022-08-05T22:31:55.323Z,2.83
2022-08-05T22:34:28.766Z,3.97
2022-08-05T22:36:58.706Z,3.47
2022-08-05T22:39:32.712Z,3.25
2022-08-05T22:42:11.511Z,3.55
2022-08-05T22:44:47.027Z,3.70
2022-08-05T22:47:28.543Z,3.50
2022-08-05T22:50:20.364Z,3.72
2022-08-05T22:52:52.449Z,4.35
2022-08-05T22:55:21.976Z,3.22
2022-08-05T22:57:53.313Z,3.40
2022-08-05T23:00:22.857Z,3.63
2022-08-05T23:02:53.408Z,4.15
2022-08-05T23:05:22.671Z,4.43
2022-08-05T23:07:51.571Z,3.83
2022-08-05T23:10:23.564Z,3.75
2022-08-05T23:12:54.736Z,3.33
2022-08-05T23:15:26.941Z,3.55
2022-08-05T23:18:01.176Z,2.80
2022-08-05T23:20:32.259Z,3.67
2022-08-05T23:23:05.885Z,3.95
2022-08-05T23:25:52.145Z,3.55
2022-08-05T23:28:29.116Z,3.65
2022-08-05T23:31:16.118Z,3.40
2022-08-05T23:34:04.083Z,6.07
2022-08-05T23:36:38.482Z,3.75
2022-08-05T23:39:07.576Z,3.17
2022-08-05T23:41:37.395Z,3.80
2022-08-05T23:44:09.106Z,3.50
2022-08-05T23:46:39.257Z,4.95
2022-08-05T23:49:16.116Z,3.67
2022-08-05T23:52:05.764Z,3.83
2022-08-05T23:54:36.578Z,3.40
2022-08-05T23:57:07.059Z,3.95
